sensor_id;sensor_type;location;lat;lon;timestamp;temperature;humidity
28761;DHT22;15917;50.014;8.352;2024-02-21T00:01:50;8.70;99.90
28761;DHT22;15917;50.014;8.352;2024-02-21T00:04:16;8.60;99.90
28761;DHT22;15917;50.014;8.352;2024-02-21T00:06:41;8.60;99.90
28761;DHT22;15917;50.014;8.352;2024-02-21T00:09:07;8.50;99.90
28761;DHT22;15917;50.014;8.352;2024-02-21T00:11:35;8.60;99.90
28761;DHT22;15917;50.014;8.352;2024-02-21T00:14:00;8.60;99.90
28761;DHT22;15917;50.014;8.352;2024-02-21T00:16:26;8.60;99.90
28761;DHT22;15917;50.014;8.352;2024-02-21T00:18:52;8.60;99.90
28761;DHT22;15917;50.014;8.352;2024-02-21T00:21:17;8.60;99.90
28761;DHT22;15917;50.014;8.352;2024-02-21T00:23:44;8.70;99.90
28761;DHT22;15917;50.014;8.352;2024-02-21T00:26:14;8.60;99.90
28761;DHT22;15917;50.014;8.352;2024-02-21T00:28:40;8.50;99.90
28761;DHT22;15917;50.014;8.352;2024-02-21T00:31:06;8.50;99.90
28761;DHT22;15917;50.014;8.352;2024-02-21T00:33:31;8.60;99.90
28761;DHT22;15917;50.014;8.352;2024-02-21T00:35:57;8.50;99.90
28761;DHT22;15917;50.014;8.352;2024-02-21T00:38:23;8.60;99.90
28761;DHT22;15917;50.014;8.352;2024-02-21T00:40:48;8.70;99.90
28761;DHT22;15917;50.014;8.352;2024-02-21T00:43:14;8.60;99.90
28761;DHT22;15917;50.014;8.352;2024-02-21T00:45:40;8.60;99.90
28761;DHT22;15917;50.014;8.352;2024-02-21T00:48:06;8.50;99.90
28761;DHT22;15917;50.014;8.352;2024-02-21T00:50:31;8.50;99.90
28761;DHT22;15917;50.014;8.352;2024-02-21T00:52:57;8.50;99.90
28761;DHT22;15917;50.014;8.352;2024-02-21T00:55:23;8.40;99.90
28761;DHT22;15917;50.014;8.352;2024-02-21T00:57:48;8.40;99.90
28761;DHT22;15917;50.014;8.352;2024-02-21T01:00:14;8.50;99.90
28761;DHT22;15917;50.014;8.352;2024-02-21T01:02:40;8.50;99.90
28761;DHT22;15917;50.014;8.352;2024-02-21T01:05:06;8.50;99.90
28761;DHT22;15917;50.014;8.352;2024-02-21T01:07:32;8.50;99.90
28761;DHT22;15917;50.014;8.352;2024-02-21T01:09:57;8.50;99.90
28761;DHT22;15917;50.014;8.352;2024-02-21T01:12:23;8.50;99.90
28761;DHT22;15917;50.014;8.352;2024-02-21T01:14:49;8.40;99.90
28761;DHT22;15917;50.014;8.352;2024-02-21T01:17:15;8.50;99.90
28761;DHT22;15917;50.014;8.352;2024-02-21T01:19:41;8.50;99.90
28761;DHT22;15917;50.014;8.352;2024-02-21T01:22:06;8.50;99.90
28761;DHT22;15917;50.014;8.352;2024-02-21T01:24:32;8.50;99.90
28761;DHT22;15917;50.014;8.352;2024-02-21T01:26:58;8.50;99.90
28761;DHT22;15917;50.014;8.352;2024-02-21T01:29:23;8.50;99.90
28761;DHT22;15917;50.014;8.352;2024-02-21T01:31:49;8.40;99.90
28761;DHT22;15917;50.014;8.352;2024-02-21T01:34:15;8.50;99.90
28761;DHT22;15917;50.014;8.352;2024-02-21T01:36:40;8.50;99.90
28761;DHT22;15917;50.014;8.352;2024-02-21T01:39:07;8.50;99.90
28761;DHT22;15917;50.014;8.352;2024-02-21T01:41:33;8.60;99.90
28761;DHT22;15917;50.014;8.352;2024-02-21T01:43:59;8.60;99.90
28761;DHT22;15917;50.014;8.352;2024-02-21T01:46:24;8.60;99.90
28761;DHT22;15917;50.014;8.352;2024-02-21T01:48:55;8.60;99.90
28761;DHT22;15917;50.014;8.352;2024-02-21T01:51:21;8.70;99.90
28761;DHT22;15917;50.014;8.352;2024-02-21T01:53:47;8.70;99.90
28761;DHT22;15917;50.014;8.352;2024-02-21T01:56:13;8.60;99.90
28761;DHT22;15917;50.014;8.352;2024-02-21T01:58:40;8.70;99.90
28761;DHT22;15917;50.014;8.352;2024-02-21T02:01:07;8.60;99.90
28761;DHT22;15917;50.014;8.352;2024-02-21T02:03:33;8.60;99.90
28761;DHT22;15917;50.014;8.352;2024-02-21T02:06:00;8.60;99.90
28761;DHT22;15917;50.014;8.352;2024-02-21T02:08:26;8.60;99.90
28761;DHT22;15917;50.014;8.352;2024-02-21T02:10:52;8.60;99.90
28761;DHT22;15917;50.014;8.352;2024-02-21T02:13:18;8.60;99.90
28761;DHT22;15917;50.014;8.352;2024-02-21T02:15:45;8.60;99.90
28761;DHT22;15917;50.014;8.352;2024-02-21T02:18:11;8.60;99.90
28761;DHT22;15917;50.014;8.352;2024-02-21T02:20:38;8.50;99.90
28761;DHT22;15917;50.014;8.352;2024-02-21T02:23:11;8.60;99.90
28761;DHT22;15917;50.014;8.352;2024-02-21T02:25:38;8.50;99.90
28761;DHT22;15917;50.014;8.352;2024-02-21T02:28:05;8.50;99.90
28761;DHT22;15917;50.014;8.352;2024-02-21T02:30:35;8.40;99.90
28761;DHT22;15917;50.014;8.352;2024-02-21T02:33:05;8.40;99.90
28761;DHT22;15917;50.014;8.352;2024-02-21T02:35:31;8.30;99.90
28761;DHT22;15917;50.014;8.352;2024-02-21T02:37:57;8.40;99.90
28761;DHT22;15917;50.014;8.352;2024-02-21T02:40:23;8.40;99.90
28761;DHT22;15917;50.014;8.352;2024-02-21T02:45:22;8.30;99.90
28761;DHT22;15917;50.014;8.352;2024-02-21T02:47:49;8.30;99.90
28761;DHT22;15917;50.014;8.352;2024-02-21T02:50:14;8.30;99.90
28761;DHT22;15917;50.014;8.352;2024-02-21T02:52:40;8.20;99.90
28761;DHT22;15917;50.014;8.352;2024-02-21T02:55:06;8.30;99.90
28761;DHT22;15917;50.014;8.352;2024-02-21T02:57:32;8.30;99.90
28761;DHT22;15917;50.014;8.352;2024-02-21T02:59:58;8.30;99.90
28761;DHT22;15917;50.014;8.352;2024-02-21T03:02:24;8.30;99.90
28761;DHT22;15917;50.014;8.352;2024-02-21T03:04:50;8.30;99.90
28761;DHT22;15917;50.014;8.352;2024-02-21T03:07:16;8.30;99.90
28761;DHT22;15917;50.014;8.352;2024-02-21T03:09:42;8.30;99.90
28761;DHT22;15917;50.014;8.352;2024-02-21T03:12:11;8.20;99.90
28761;DHT22;15917;50.014;8.352;2024-02-21T03:14:37;8.20;99.90
28761;DHT22;15917;50.014;8.352;2024-02-21T03:17:02;8.30;99.90
28761;DHT22;15917;50.014;8.352;2024-02-21T03:19:28;8.30;99.90
28761;DHT22;15917;50.014;8.352;2024-02-21T03:21:55;8.30;99.90
28761;DHT22;15917;50.014;8.352;2024-02-21T03:24:20;8.20;99.90
28761;DHT22;15917;50.014;8.352;2024-02-21T03:26:47;8.20;99.90
28761;DHT22;15917;50.014;8.352;2024-02-21T03:29:14;8.30;99.90
28761;DHT22;15917;50.014;8.352;2024-02-21T03:31:41;8.20;99.90
28761;DHT22;15917;50.014;8.352;2024-02-21T03:34:06;8.20;99.90
28761;DHT22;15917;50.014;8.352;2024-02-21T03:36:32;8.20;99.90
28761;DHT22;15917;50.014;8.352;2024-02-21T03:38:58;8.20;99.90
28761;DHT22;15917;50.014;8.352;2024-02-21T03:41:23;8.10;99.90
28761;DHT22;15917;50.014;8.352;2024-02-21T03:43:49;8.10;99.90
28761;DHT22;15917;50.014;8.352;2024-02-21T03:46:15;8.10;99.90
28761;DHT22;15917;50.014;8.352;2024-02-21T03:48:41;8.10;99.90
28761;DHT22;15917;50.014;8.352;2024-02-21T03:51:06;8.10;99.90
28761;DHT22;15917;50.014;8.352;2024-02-21T03:53:32;7.90;99.90
28761;DHT22;15917;50.014;8.352;2024-02-21T03:56:01;8.00;99.90
28761;DHT22;15917;50.014;8.352;2024-02-21T03:58:28;8.10;99.90
28761;DHT22;15917;50.014;8.352;2024-02-21T04:00:54;8.00;99.90
28761;DHT22;15917;50.014;8.352;2024-02-21T04:03:19;8.10;99.90
28761;DHT22;15917;50.014;8.352;2024-02-21T04:05:45;8.10;99.90
28761;DHT22;15917;50.014;8.352;2024-02-21T04:08:11;8.10;99.90
28761;DHT22;15917;50.014;8.352;2024-02-21T04:10:37;8.10;99.90
28761;DHT22;15917;50.014;8.352;2024-02-21T04:13:03;8.20;99.90
28761;DHT22;15917;50.014;8.352;2024-02-21T04:15:29;8.20;99.90
28761;DHT22;15917;50.014;8.352;2024-02-21T04:17:54;8.20;99.90
28761;DHT22;15917;50.014;8.352;2024-02-21T04:20:20;8.20;99.90
28761;DHT22;15917;50.014;8.352;2024-02-21T04:22:46;8.20;99.90
28761;DHT22;15917;50.014;8.352;2024-02-21T04:25:12;8.20;99.90
28761;DHT22;15917;50.014;8.352;2024-02-21T04:27:38;8.20;99.90
28761;DHT22;15917;50.014;8.352;2024-02-21T04:30:04;8.20;99.90
28761;DHT22;15917;50.014;8.352;2024-02-21T04:32:30;8.20;99.90
28761;DHT22;15917;50.014;8.352;2024-02-21T04:34:56;8.20;99.90
28761;DHT22;15917;50.014;8.352;2024-02-21T04:37:21;8.20;99.90
28761;DHT22;15917;50.014;8.352;2024-02-21T04:39:48;8.20;99.90
28761;DHT22;15917;50.014;8.352;2024-02-21T04:42:14;8.10;99.90
28761;DHT22;15917;50.014;8.352;2024-02-21T04:44:40;8.10;99.90
28761;DHT22;15917;50.014;8.352;2024-02-21T04:47:06;8.20;99.90
28761;DHT22;15917;50.014;8.352;2024-02-21T04:49:32;8.20;99.90
28761;DHT22;15917;50.014;8.352;2024-02-21T04:51:58;8.20;99.90
28761;DHT22;15917;50.014;8.352;2024-02-21T04:54:24;8.20;99.90
28761;DHT22;15917;50.014;8.352;2024-02-21T04:56:50;8.20;99.90
28761;DHT22;15917;50.014;8.352;2024-02-21T04:59:16;8.20;99.90
28761;DHT22;15917;50.014;8.352;2024-02-21T05:01:42;8.20;99.90
28761;DHT22;15917;50.014;8.352;2024-02-21T05:04:08;8.20;99.90
28761;DHT22;15917;50.014;8.352;2024-02-21T05:06:40;8.20;99.90
28761;DHT22;15917;50.014;8.352;2024-02-21T05:09:07;8.10;99.90
28761;DHT22;15917;50.014;8.352;2024-02-21T05:11:36;8.10;99.90
28761;DHT22;15917;50.014;8.352;2024-02-21T05:14:03;8.10;99.90
28761;DHT22;15917;50.014;8.352;2024-02-21T05:16:30;8.10;99.90
28761;DHT22;15917;50.014;8.352;2024-02-21T05:18:55;8.20;99.90
28761;DHT22;15917;50.014;8.352;2024-02-21T05:21:25;8.20;99.90
28761;DHT22;15917;50.014;8.352;2024-02-21T05:23:51;8.20;99.90
28761;DHT22;15917;50.014;8.352;2024-02-21T05:26:24;8.20;99.90
28761;DHT22;15917;50.014;8.352;2024-02-21T05:28:51;8.20;99.90
28761;DHT22;15917;50.014;8.352;2024-02-21T05:31:18;8.20;99.90
28761;DHT22;15917;50.014;8.352;2024-02-21T05:33:44;8.30;99.90
28761;DHT22;15917;50.014;8.352;2024-02-21T05:36:10;8.20;99.90
28761;DHT22;15917;50.014;8.352;2024-02-21T05:38:36;8.30;99.90
28761;DHT22;15917;50.014;8.352;2024-02-21T05:41:02;8.30;99.90
28761;DHT22;15917;50.014;8.352;2024-02-21T05:43:28;8.20;99.90
28761;DHT22;15917;50.014;8.352;2024-02-21T05:45:53;8.30;99.90
28761;DHT22;15917;50.014;8.352;2024-02-21T05:48:20;8.30;99.90
28761;DHT22;15917;50.014;8.352;2024-02-21T05:50:46;8.40;99.90
28761;DHT22;15917;50.014;8.352;2024-02-21T05:53:11;8.30;99.90
28761;DHT22;15917;50.014;8.352;2024-02-21T05:55:38;8.30;99.90
28761;DHT22;15917;50.014;8.352;2024-02-21T05:58:04;8.30;99.90
28761;DHT22;15917;50.014;8.352;2024-02-21T06:00:31;8.30;99.90
28761;DHT22;15917;50.014;8.352;2024-02-21T06:02:57;8.20;99.90
28761;DHT22;15917;50.014;8.352;2024-02-21T06:05:23;8.20;99.90
28761;DHT22;15917;50.014;8.352;2024-02-21T06:07:49;8.20;99.90
28761;DHT22;15917;50.014;8.352;2024-02-21T06:10:15;8.20;99.90
28761;DHT22;15917;50.014;8.352;2024-02-21T06:12:41;8.20;99.90
28761;DHT22;15917;50.014;8.352;2024-02-21T06:15:06;8.20;99.90
28761;DHT22;15917;50.014;8.352;2024-02-21T06:17:32;8.10;99.90
28761;DHT22;15917;50.014;8.352;2024-02-21T06:19:58;8.10;99.90
28761;DHT22;15917;50.014;8.352;2024-02-21T06:22:23;8.00;99.90
28761;DHT22;15917;50.014;8.352;2024-02-21T06:24:49;8.10;99.90
28761;DHT22;15917;50.014;8.352;2024-02-21T06:27:15;8.10;99.90
28761;DHT22;15917;50.014;8.352;2024-02-21T06:29:42;8.10;99.90
28761;DHT22;15917;50.014;8.352;2024-02-21T06:32:07;8.20;99.90
28761;DHT22;15917;50.014;8.352;2024-02-21T06:34:33;8.70;99.90
28761;DHT22;15917;50.014;8.352;2024-02-21T06:36:59;8.90;99.90
28761;DHT22;15917;50.014;8.352;2024-02-21T06:39:24;8.90;99.90
28761;DHT22;15917;50.014;8.352;2024-02-21T06:41:50;8.80;99.90
28761;DHT22;15917;50.014;8.352;2024-02-21T06:44:19;8.60;99.90
28761;DHT22;15917;50.014;8.352;2024-02-21T06:46:45;8.40;99.90
28761;DHT22;15917;50.014;8.352;2024-02-21T06:49:11;8.30;99.90
28761;DHT22;15917;50.014;8.352;2024-02-21T06:51:42;8.20;99.90
28761;DHT22;15917;50.014;8.352;2024-02-21T06:54:08;8.10;99.90
28761;DHT22;15917;50.014;8.352;2024-02-21T06:56:36;8.00;99.90
28761;DHT22;15917;50.014;8.352;2024-02-21T06:59:02;8.00;99.90
28761;DHT22;15917;50.014;8.352;2024-02-21T07:01:29;8.10;99.90
28761;DHT22;15917;50.014;8.352;2024-02-21T07:03:55;8.00;99.90
28761;DHT22;15917;50.014;8.352;2024-02-21T07:06:21;8.00;99.90
28761;DHT22;15917;50.014;8.352;2024-02-21T07:08:47;8.10;99.90
28761;DHT22;15917;50.014;8.352;2024-02-21T07:11:13;8.10;99.90
28761;DHT22;15917;50.014;8.352;2024-02-21T07:13:38;8.10;99.90
28761;DHT22;15917;50.014;8.352;2024-02-21T07:16:04;8.10;99.90
28761;DHT22;15917;50.014;8.352;2024-02-21T07:18:30;8.10;99.90
28761;DHT22;15917;50.014;8.352;2024-02-21T07:20:56;8.10;99.90
28761;DHT22;15917;50.014;8.352;2024-02-21T07:23:22;8.10;99.90
28761;DHT22;15917;50.014;8.352;2024-02-21T07:25:47;8.10;99.90
28761;DHT22;15917;50.014;8.352;2024-02-21T07:28:13;8.20;99.90
28761;DHT22;15917;50.014;8.352;2024-02-21T07:30:39;8.30;99.90
28761;DHT22;15917;50.014;8.352;2024-02-21T07:33:05;8.40;99.90
28761;DHT22;15917;50.014;8.352;2024-02-21T07:35:32;8.40;99.90
28761;DHT22;15917;50.014;8.352;2024-02-21T07:37:58;8.50;99.90
28761;DHT22;15917;50.014;8.352;2024-02-21T07:40:24;8.50;99.90
28761;DHT22;15917;50.014;8.352;2024-02-21T07:42:49;8.50;99.90
28761;DHT22;15917;50.014;8.352;2024-02-21T07:45:15;8.60;99.90
28761;DHT22;15917;50.014;8.352;2024-02-21T07:47:41;8.70;99.90
28761;DHT22;15917;50.014;8.352;2024-02-21T07:50:07;8.70;99.90
28761;DHT22;15917;50.014;8.352;2024-02-21T07:52:33;8.80;99.90
28761;DHT22;15917;50.014;8.352;2024-02-21T07:54:58;8.80;99.90
28761;DHT22;15917;50.014;8.352;2024-02-21T07:57:24;8.80;99.90
28761;DHT22;15917;50.014;8.352;2024-02-21T07:59:50;8.80;99.90
28761;DHT22;15917;50.014;8.352;2024-02-21T08:02:16;8.70;99.90
28761;DHT22;15917;50.014;8.352;2024-02-21T08:04:42;8.70;99.90
28761;DHT22;15917;50.014;8.352;2024-02-21T08:07:08;8.70;99.90
28761;DHT22;15917;50.014;8.352;2024-02-21T08:09:34;8.70;99.90
28761;DHT22;15917;50.014;8.352;2024-02-21T08:12:00;8.60;99.90
28761;DHT22;15917;50.014;8.352;2024-02-21T08:14:26;8.60;99.90
28761;DHT22;15917;50.014;8.352;2024-02-21T08:16:51;8.70;99.90
28761;DHT22;15917;50.014;8.352;2024-02-21T08:19:21;8.70;99.90
28761;DHT22;15917;50.014;8.352;2024-02-21T08:21:48;8.80;99.90
28761;DHT22;15917;50.014;8.352;2024-02-21T08:24:14;8.80;99.90
28761;DHT22;15917;50.014;8.352;2024-02-21T08:26:46;8.80;99.90
28761;DHT22;15917;50.014;8.352;2024-02-21T08:29:12;8.80;99.90
28761;DHT22;15917;50.014;8.352;2024-02-21T08:31:37;8.80;99.90
28761;DHT22;15917;50.014;8.352;2024-02-21T08:34:03;8.80;99.90
28761;DHT22;15917;50.014;8.352;2024-02-21T08:36:36;8.80;99.90
28761;DHT22;15917;50.014;8.352;2024-02-21T08:39:03;8.90;99.90
28761;DHT22;15917;50.014;8.352;2024-02-21T08:41:31;9.00;99.90
28761;DHT22;15917;50.014;8.352;2024-02-21T08:43:57;9.00;99.90
28761;DHT22;15917;50.014;8.352;2024-02-21T08:46:23;9.10;99.90
28761;DHT22;15917;50.014;8.352;2024-02-21T08:48:50;9.10;99.90
28761;DHT22;15917;50.014;8.352;2024-02-21T08:51:19;9.20;99.90
28761;DHT22;15917;50.014;8.352;2024-02-21T08:53:48;9.30;99.90
28761;DHT22;15917;50.014;8.352;2024-02-21T08:56:15;9.40;99.90
28761;DHT22;15917;50.014;8.352;2024-02-21T08:58:40;9.40;99.90
28761;DHT22;15917;50.014;8.352;2024-02-21T09:01:07;9.30;99.90
28761;DHT22;15917;50.014;8.352;2024-02-21T09:03:39;9.30;99.90
28761;DHT22;15917;50.014;8.352;2024-02-21T09:06:05;9.30;99.90
28761;DHT22;15917;50.014;8.352;2024-02-21T09:08:32;9.40;99.90
28761;DHT22;15917;50.014;8.352;2024-02-21T09:10:58;9.50;99.90
28761;DHT22;15917;50.014;8.352;2024-02-21T09:13:24;9.60;99.90
28761;DHT22;15917;50.014;8.352;2024-02-21T09:15:50;9.60;99.90
28761;DHT22;15917;50.014;8.352;2024-02-21T09:18:15;9.70;99.90
28761;DHT22;15917;50.014;8.352;2024-02-21T09:20:42;9.70;99.90
28761;DHT22;15917;50.014;8.352;2024-02-21T09:23:08;9.80;99.90
28761;DHT22;15917;50.014;8.352;2024-02-21T09:25:33;9.80;99.90
28761;DHT22;15917;50.014;8.352;2024-02-21T09:28:01;9.80;99.90
28761;DHT22;15917;50.014;8.352;2024-02-21T09:30:27;9.80;99.90
28761;DHT22;15917;50.014;8.352;2024-02-21T09:32:53;9.90;99.90
28761;DHT22;15917;50.014;8.352;2024-02-21T09:35:19;10.00;99.90
28761;DHT22;15917;50.014;8.352;2024-02-21T09:37:44;10.00;99.90
28761;DHT22;15917;50.014;8.352;2024-02-21T09:40:11;10.20;99.90
28761;DHT22;15917;50.014;8.352;2024-02-21T09:42:38;10.20;99.90
28761;DHT22;15917;50.014;8.352;2024-02-21T09:45:10;10.20;99.90
28761;DHT22;15917;50.014;8.352;2024-02-21T09:48:07;10.40;99.90
28761;DHT22;15917;50.014;8.352;2024-02-21T09:50:36;10.50;99.90
28761;DHT22;15917;50.014;8.352;2024-02-21T09:53:04;10.50;99.90
28761;DHT22;15917;50.014;8.352;2024-02-21T09:55:33;10.40;99.90
28761;DHT22;15917;50.014;8.352;2024-02-21T09:58:01;10.40;99.90
28761;DHT22;15917;50.014;8.352;2024-02-21T10:00:27;10.50;99.90
28761;DHT22;15917;50.014;8.352;2024-02-21T10:02:54;10.60;99.90
28761;DHT22;15917;50.014;8.352;2024-02-21T10:05:20;10.80;99.90
28761;DHT22;15917;50.014;8.352;2024-02-21T10:07:46;10.90;99.90
28761;DHT22;15917;50.014;8.352;2024-02-21T10:10:14;11.00;99.90
28761;DHT22;15917;50.014;8.352;2024-02-21T10:12:53;11.00;99.90
28761;DHT22;15917;50.014;8.352;2024-02-21T10:15:26;10.90;99.90
28761;DHT22;15917;50.014;8.352;2024-02-21T10:18:00;10.80;99.90
28761;DHT22;15917;50.014;8.352;2024-02-21T10:20:26;10.70;99.90
28761;DHT22;15917;50.014;8.352;2024-02-21T10:23:03;10.60;99.90
28761;DHT22;15917;50.014;8.352;2024-02-21T10:25:34;10.50;99.90
28761;DHT22;15917;50.014;8.352;2024-02-21T10:28:01;10.50;99.90
28761;DHT22;15917;50.014;8.352;2024-02-21T10:30:27;10.60;99.90
28761;DHT22;15917;50.014;8.352;2024-02-21T10:32:53;10.70;99.90
28761;DHT22;15917;50.014;8.352;2024-02-21T10:35:26;10.60;99.90
28761;DHT22;15917;50.014;8.352;2024-02-21T10:37:54;10.50;99.90
28761;DHT22;15917;50.014;8.352;2024-02-21T10:40:22;10.60;99.90
28761;DHT22;15917;50.014;8.352;2024-02-21T10:42:48;10.50;99.90
28761;DHT22;15917;50.014;8.352;2024-02-21T10:45:17;10.60;99.90
28761;DHT22;15917;50.014;8.352;2024-02-21T10:47:48;10.60;99.90
28761;DHT22;15917;50.014;8.352;2024-02-21T10:50:18;10.70;99.90
28761;DHT22;15917;50.014;8.352;2024-02-21T10:53:00;10.80;99.90
28761;DHT22;15917;50.014;8.352;2024-02-21T10:55:41;10.90;99.90
28761;DHT22;15917;50.014;8.352;2024-02-21T10:58:10;11.10;99.90
28761;DHT22;15917;50.014;8.352;2024-02-21T11:00:36;11.30;99.90
28761;DHT22;15917;50.014;8.352;2024-02-21T11:03:02;11.30;99.90
28761;DHT22;15917;50.014;8.352;2024-02-21T11:05:28;11.40;99.90
28761;DHT22;15917;50.014;8.352;2024-02-21T11:07:55;11.50;99.90
28761;DHT22;15917;50.014;8.352;2024-02-21T11:10:25;11.60;99.90
28761;DHT22;15917;50.014;8.352;2024-02-21T11:13:09;11.60;99.90
28761;DHT22;15917;50.014;8.352;2024-02-21T11:15:35;11.70;99.90
28761;DHT22;15917;50.014;8.352;2024-02-21T11:18:00;11.90;99.90
28761;DHT22;15917;50.014;8.352;2024-02-21T11:20:36;11.90;99.90
28761;DHT22;15917;50.014;8.352;2024-02-21T11:23:02;11.70;99.90
28761;DHT22;15917;50.014;8.352;2024-02-21T11:25:29;11.60;99.90
28761;DHT22;15917;50.014;8.352;2024-02-21T11:28:03;11.60;99.90
28761;DHT22;15917;50.014;8.352;2024-02-21T11:30:35;11.50;99.90
28761;DHT22;15917;50.014;8.352;2024-02-21T11:33:02;11.30;99.90
28761;DHT22;15917;50.014;8.352;2024-02-21T11:35:32;11.20;99.90
28761;DHT22;15917;50.014;8.352;2024-02-21T11:38:12;11.10;99.90
28761;DHT22;15917;50.014;8.352;2024-02-21T11:40:46;11.10;99.90
28761;DHT22;15917;50.014;8.352;2024-02-21T11:43:12;11.10;99.90
28761;DHT22;15917;50.014;8.352;2024-02-21T11:45:38;11.20;99.90
28761;DHT22;15917;50.014;8.352;2024-02-21T11:48:08;11.10;99.90
28761;DHT22;15917;50.014;8.352;2024-02-21T11:50:36;11.20;99.90
28761;DHT22;15917;50.014;8.352;2024-02-21T11:53:05;11.20;99.90
28761;DHT22;15917;50.014;8.352;2024-02-21T11:55:31;11.20;99.90
28761;DHT22;15917;50.014;8.352;2024-02-21T11:57:56;11.20;99.90
28761;DHT22;15917;50.014;8.352;2024-02-21T12:00:23;11.20;99.90
28761;DHT22;15917;50.014;8.352;2024-02-21T12:02:51;11.30;99.90
28761;DHT22;15917;50.014;8.352;2024-02-21T12:05:19;11.20;99.90
28761;DHT22;15917;50.014;8.352;2024-02-21T12:07:45;11.40;99.90
28761;DHT22;15917;50.014;8.352;2024-02-21T12:10:11;11.40;99.90
28761;DHT22;15917;50.014;8.352;2024-02-21T12:12:37;11.50;99.90
28761;DHT22;15917;50.014;8.352;2024-02-21T12:15:07;11.50;99.90
28761;DHT22;15917;50.014;8.352;2024-02-21T12:17:37;11.60;99.90
28761;DHT22;15917;50.014;8.352;2024-02-21T12:20:03;11.60;99.90
28761;DHT22;15917;50.014;8.352;2024-02-21T12:22:31;11.70;99.90
28761;DHT22;15917;50.014;8.352;2024-02-21T12:24:58;11.70;99.90
28761;DHT22;15917;50.014;8.352;2024-02-21T12:27:24;11.90;99.90
28761;DHT22;15917;50.014;8.352;2024-02-21T12:29:50;11.80;99.90
28761;DHT22;15917;50.014;8.352;2024-02-21T12:32:16;11.70;99.90
28761;DHT22;15917;50.014;8.352;2024-02-21T12:34:42;11.60;99.90
28761;DHT22;15917;50.014;8.352;2024-02-21T12:37:07;11.40;99.90
28761;DHT22;15917;50.014;8.352;2024-02-21T12:39:33;11.40;99.90
28761;DHT22;15917;50.014;8.352;2024-02-21T12:41:59;11.30;99.90
28761;DHT22;15917;50.014;8.352;2024-02-21T12:44:25;11.30;99.90
28761;DHT22;15917;50.014;8.352;2024-02-21T12:46:50;11.30;99.90
28761;DHT22;15917;50.014;8.352;2024-02-21T12:49:19;11.20;99.90
28761;DHT22;15917;50.014;8.352;2024-02-21T12:51:45;11.20;99.90
28761;DHT22;15917;50.014;8.352;2024-02-21T12:54:14;11.20;99.90
28761;DHT22;15917;50.014;8.352;2024-02-21T12:56:40;11.30;99.90
28761;DHT22;15917;50.014;8.352;2024-02-21T12:59:06;11.30;99.90
28761;DHT22;15917;50.014;8.352;2024-02-21T13:01:35;11.20;99.90
28761;DHT22;15917;50.014;8.352;2024-02-21T13:04:01;11.20;99.90
28761;DHT22;15917;50.014;8.352;2024-02-21T13:06:27;11.10;99.90
28761;DHT22;15917;50.014;8.352;2024-02-21T13:08:53;11.10;99.90
28761;DHT22;15917;50.014;8.352;2024-02-21T13:11:19;11.10;99.90
28761;DHT22;15917;50.014;8.352;2024-02-21T13:13:45;11.20;99.90
28761;DHT22;15917;50.014;8.352;2024-02-21T13:16:11;11.20;99.90
28761;DHT22;15917;50.014;8.352;2024-02-21T13:18:36;11.10;99.90
28761;DHT22;15917;50.014;8.352;2024-02-21T13:21:05;11.10;99.90
28761;DHT22;15917;50.014;8.352;2024-02-21T13:23:31;11.10;99.90
28761;DHT22;15917;50.014;8.352;2024-02-21T13:25:57;11.10;99.90
28761;DHT22;15917;50.014;8.352;2024-02-21T13:28:23;11.10;99.90
28761;DHT22;15917;50.014;8.352;2024-02-21T13:30:48;11.10;99.90
28761;DHT22;15917;50.014;8.352;2024-02-21T13:33:14;11.10;99.90
28761;DHT22;15917;50.014;8.352;2024-02-21T13:35:40;11.20;99.90
28761;DHT22;15917;50.014;8.352;2024-02-21T13:38:05;11.30;99.90
28761;DHT22;15917;50.014;8.352;2024-02-21T13:40:31;11.40;99.90
28761;DHT22;15917;50.014;8.352;2024-02-21T13:42:57;11.40;99.90
28761;DHT22;15917;50.014;8.352;2024-02-21T13:45:22;11.40;99.90
28761;DHT22;15917;50.014;8.352;2024-02-21T13:47:48;11.40;99.90
28761;DHT22;15917;50.014;8.352;2024-02-21T13:50:14;11.40;99.90
28761;DHT22;15917;50.014;8.352;2024-02-21T13:52:40;11.40;99.90
28761;DHT22;15917;50.014;8.352;2024-02-21T13:55:06;11.50;99.90
28761;DHT22;15917;50.014;8.352;2024-02-21T13:57:36;11.40;99.90
28761;DHT22;15917;50.014;8.352;2024-02-21T14:00:02;11.40;99.90
28761;DHT22;15917;50.014;8.352;2024-02-21T14:02:37;11.40;99.90
28761;DHT22;15917;50.014;8.352;2024-02-21T14:05:04;11.30;99.90
28761;DHT22;15917;50.014;8.352;2024-02-21T14:07:31;11.20;99.90
28761;DHT22;15917;50.014;8.352;2024-02-21T14:09:58;11.10;99.90
28761;DHT22;15917;50.014;8.352;2024-02-21T14:12:24;11.10;99.90
28761;DHT22;15917;50.014;8.352;2024-02-21T14:14:50;11.10;99.90
28761;DHT22;15917;50.014;8.352;2024-02-21T14:17:17;11.10;99.90
28761;DHT22;15917;50.014;8.352;2024-02-21T14:19:43;11.10;99.90
28761;DHT22;15917;50.014;8.352;2024-02-21T14:22:08;11.20;99.90
28761;DHT22;15917;50.014;8.352;2024-02-21T14:24:36;11.20;99.90
28761;DHT22;15917;50.014;8.352;2024-02-21T14:27:02;11.20;99.90
28761;DHT22;15917;50.014;8.352;2024-02-21T14:29:29;11.20;99.90
28761;DHT22;15917;50.014;8.352;2024-02-21T14:31:54;11.20;99.90
28761;DHT22;15917;50.014;8.352;2024-02-21T14:34:20;11.20;99.90
28761;DHT22;15917;50.014;8.352;2024-02-21T14:36:46;11.20;99.90
28761;DHT22;15917;50.014;8.352;2024-02-21T14:39:11;11.30;99.90
28761;DHT22;15917;50.014;8.352;2024-02-21T14:41:37;11.30;99.90
28761;DHT22;15917;50.014;8.352;2024-02-21T14:44:06;11.30;99.90
28761;DHT22;15917;50.014;8.352;2024-02-21T14:46:31;11.40;99.90
28761;DHT22;15917;50.014;8.352;2024-02-21T14:48:57;11.40;99.90
28761;DHT22;15917;50.014;8.352;2024-02-21T14:51:23;11.40;99.90
28761;DHT22;15917;50.014;8.352;2024-02-21T14:53:49;11.40;99.90
28761;DHT22;15917;50.014;8.352;2024-02-21T14:56:15;11.40;99.90
28761;DHT22;15917;50.014;8.352;2024-02-21T14:58:41;11.40;99.90
28761;DHT22;15917;50.014;8.352;2024-02-21T15:01:07;11.30;99.90
28761;DHT22;15917;50.014;8.352;2024-02-21T15:03:33;11.30;99.90
28761;DHT22;15917;50.014;8.352;2024-02-21T15:05:59;11.30;99.90
28761;DHT22;15917;50.014;8.352;2024-02-21T15:08:26;11.30;99.90
28761;DHT22;15917;50.014;8.352;2024-02-21T15:10:53;11.30;99.90
28761;DHT22;15917;50.014;8.352;2024-02-21T15:13:18;11.40;99.90
28761;DHT22;15917;50.014;8.352;2024-02-21T15:15:44;11.40;99.90
28761;DHT22;15917;50.014;8.352;2024-02-21T15:18:10;11.30;99.90
28761;DHT22;15917;50.014;8.352;2024-02-21T15:20:35;11.20;99.90
28761;DHT22;15917;50.014;8.352;2024-02-21T15:23:02;11.20;99.90
28761;DHT22;15917;50.014;8.352;2024-02-21T15:25:30;11.20;99.90
28761;DHT22;15917;50.014;8.352;2024-02-21T15:27:56;11.10;99.90
28761;DHT22;15917;50.014;8.352;2024-02-21T15:30:22;11.10;99.90
28761;DHT22;15917;50.014;8.352;2024-02-21T15:32:47;11.10;99.90
28761;DHT22;15917;50.014;8.352;2024-02-21T15:35:13;11.10;99.90
28761;DHT22;15917;50.014;8.352;2024-02-21T15:37:39;11.20;99.90
28761;DHT22;15917;50.014;8.352;2024-02-21T15:40:05;11.40;99.90